createdAt,value
2018-05-13T00:02:09.361Z,8.50
2018-05-13T00:04:36.826Z,8.73
2018-05-13T00:07:04.390Z,9.30
2018-05-13T00:09:32.638Z,8.23
2018-05-13T00:12:00.116Z,9.03
2018-05-13T00:14:27.721Z,9.10
2018-05-13T00:16:55.186Z,8.97
2018-05-13T00:19:22.731Z,8.67
2018-05-13T00:21:50.214Z,9.47
2018-05-13T00:24:17.680Z,10.17
2018-05-13T00:26:45.138Z,8.93
2018-05-13T00:29:12.628Z,9.10
2018-05-13T00:31:40.854Z,9.20
2018-05-13T00:34:08.321Z,9.40
2018-05-13T00:36:35.825Z,9.20
2018-05-13T00:39:04.064Z,9.53
2018-05-13T00:41:31.528Z,9.70
2018-05-13T00:43:59.009Z,10.73
2018-05-13T00:46:27.225Z,10.40
2018-05-13T00:48:54.689Z,9.63
2018-05-13T00:51:22.269Z,9.90
2018-05-13T00:53:49.737Z,10.10
2018-05-13T00:56:17.192Z,10.50
2018-05-13T00:58:44.752Z,11.07
2018-05-13T01:01:12.155Z,10.93
2018-05-13T01:03:39.614Z,10.30
2018-05-13T01:06:07.105Z,11.80
2018-05-13T01:08:34.568Z,10.93
2018-05-13T01:11:02.036Z,11.43
2018-05-13T01:13:30.277Z,11.10
2018-05-13T01:15:57.756Z,10.50
2018-05-13T01:18:25.264Z,10.83
2018-05-13T01:20:52.732Z,10.50
2018-05-13T01:23:20.185Z,11.00
2018-05-13T01:25:47.672Z,11.77
2018-05-13T01:28:15.139Z,10.60
2018-05-13T01:30:42.609Z,11.07
2018-05-13T01:33:10.856Z,11.27
2018-05-13T01:35:38.327Z,11.40
2018-05-13T01:38:05.801Z,10.97
2018-05-13T01:40:34.154Z,11.70
2018-05-13T01:43:01.671Z,10.97
2018-05-13T01:45:29.253Z,11.70
2018-05-13T01:47:56.729Z,10.30
2018-05-13T01:50:24.271Z,10.73
2018-05-13T01:52:51.737Z,13.10
2018-05-13T01:55:19.223Z,11.77
2018-05-13T01:57:47.449Z,12.67
2018-05-13T02:00:14.909Z,12.87
2018-05-13T02:02:42.403Z,11.37
2018-05-13T02:05:09.891Z,11.57
2018-05-13T02:07:37.409Z,12.47
2018-05-13T02:10:04.972Z,11.70
2018-05-13T02:12:32.433Z,10.80
2018-05-13T02:14:59.897Z,12.13
2018-05-13T02:17:28.149Z,12.20
2018-05-13T02:19:55.617Z,12.60
2018-05-13T02:22:23.125Z,12.53
2018-05-13T02:24:50.605Z,11.90
2018-05-13T02:27:18.073Z,12.03
2018-05-13T02:29:45.594Z,12.13
2018-05-13T02:32:13.060Z,12.33
2018-05-13T02:34:40.525Z,11.30
2018-05-13T02:37:08.014Z,11.90
2018-05-13T02:39:35.477Z,11.70
2018-05-13T02:42:03.749Z,11.60
2018-05-13T02:44:31.234Z,12.00
2018-05-13T02:46:58.712Z,12.30
2018-05-13T02:49:26.176Z,11.90
2018-05-13T02:51:53.665Z,12.47
2018-05-13T02:54:21.137Z,11.43
2018-05-13T02:56:49.368Z,9.97
2018-05-13T02:59:16.852Z,10.00
2018-05-13T03:01:44.322Z,11.43
2018-05-13T03:04:11.784Z,9.80
2018-05-13T03:06:40.025Z,9.80
2018-05-13T03:09:07.500Z,9.33
2018-05-13T03:11:34.968Z,9.60
2018-05-13T03:14:03.195Z,9.60
2018-05-13T03:16:30.993Z,9.33
2018-05-13T03:18:58.518Z,11.10
2018-05-13T03:21:25.913Z,9.50
2018-05-13T03:23:53.421Z,9.17
2018-05-13T03:26:20.878Z,9.30
2018-05-13T03:28:48.360Z,8.90
2018-05-13T03:31:15.840Z,9.33
2018-05-13T03:33:43.301Z,8.90
2018-05-13T03:36:11.531Z,11.13
2018-05-13T03:38:39.014Z,9.57
2018-05-13T03:41:07.999Z,10.40
2018-05-13T03:43:35.469Z,10.80
2018-05-13T03:46:02.953Z,11.00
2018-05-13T03:48:31.189Z,10.53
2018-05-13T03:50:58.677Z,11.07
2018-05-13T03:53:26.913Z,11.97
2018-05-13T03:55:54.381Z,12.57
2018-05-13T03:58:21.861Z,11.83
2018-05-13T04:00:50.097Z,11.87
2018-05-13T04:03:17.568Z,12.27
2018-05-13T04:05:45.045Z,13.33
2018-05-13T04:08:42.120Z,12.67
2018-05-13T04:11:21.448Z,13.17
2018-05-13T04:14:01.661Z,12.13
2018-05-13T04:16:29.141Z,13.07
2018-05-13T04:18:58.576Z,13.13
2018-05-13T04:21:26.051Z,13.10
2018-05-13T04:23:53.686Z,12.00
2018-05-13T04:26:21.210Z,13.70
2018-05-13T04:28:48.749Z,12.10
2018-05-13T04:31:16.225Z,11.67
2018-05-13T04:33:51.374Z,13.00
2018-05-13T04:36:18.884Z,12.33
2018-05-13T04:38:46.357Z,12.90
2018-05-13T04:41:13.824Z,12.30
2018-05-13T04:43:41.301Z,13.10
2018-05-13T04:46:08.773Z,13.30
2018-05-13T04:48:37.005Z,15.30
2018-05-13T04:51:04.492Z,15.17
2018-05-13T04:53:32.717Z,17.40
2018-05-13T04:56:00.179Z,15.97
2018-05-13T04:58:27.680Z,17.73
2018-05-13T05:00:55.921Z,18.27
2018-05-13T05:03:23.379Z,17.47
2018-05-13T05:05:50.856Z,18.60
2018-05-13T05:08:18.332Z,19.27
2018-05-13T05:10:46.557Z,16.80
2018-05-13T05:13:14.037Z,18.80
2018-05-13T05:15:41.509Z,18.40
2018-05-13T05:18:09.750Z,18.30
2018-05-13T05:20:37.225Z,19.80
2018-05-13T05:23:06.211Z,18.70
2018-05-13T05:25:33.672Z,20.20
2018-05-13T05:28:01.161Z,19.63
2018-05-13T05:30:28.624Z,21.30
2018-05-13T05:32:56.089Z,21.87
2018-05-13T05:35:23.602Z,21.00
2018-05-13T05:37:51.077Z,22.90
2018-05-13T05:40:19.310Z,23.17
2018-05-13T05:42:46.792Z,24.20
2018-05-13T05:45:14.303Z,25.50
2018-05-13T05:47:41.768Z,23.43
2018-05-13T05:50:09.367Z,23.37
2018-05-13T05:52:36.833Z,23.80
2018-05-13T05:55:05.065Z,25.57
2018-05-13T05:57:32.544Z,22.67
2018-05-13T06:00:00.015Z,24.20
2018-05-13T06:02:27.490Z,25.50
2018-05-13T06:04:55.762Z,24.77
2018-05-13T06:07:23.988Z,25.43
2018-05-13T06:09:51.465Z,25.10
2018-05-13T06:12:18.948Z,24.10
2018-05-13T06:14:47.184Z,24.73
2018-05-13T06:17:14.645Z,25.87
2018-05-13T06:19:42.135Z,25.20
2018-05-13T06:22:10.387Z,26.07
2018-05-13T06:24:37.849Z,25.90
2018-05-13T06:27:05.338Z,25.37
2018-05-13T06:29:32.822Z,28.40
2018-05-13T06:32:00.313Z,26.80
2018-05-13T06:34:27.778Z,29.70
2018-05-13T06:36:56.038Z,28.83
2018-05-13T06:39:23.530Z,30.03
2018-05-13T06:41:51.761Z,31.23
2018-05-13T06:44:19.251Z,32.80
2018-05-13T06:46:47.488Z,34.87
2018-05-13T06:49:14.956Z,35.47
2018-05-13T06:51:42.428Z,36.57
2018-05-13T06:54:09.896Z,35.13
2018-05-13T06:56:38.155Z,34.80
2018-05-13T06:59:07.137Z,35.27
2018-05-13T07:01:34.613Z,35.53
2018-05-13T07:04:02.097Z,35.90
2018-05-13T07:06:29.776Z,35.17
2018-05-13T07:08:57.247Z,36.13
2018-05-13T07:11:24.737Z,34.47
2018-05-13T07:13:52.970Z,36.77
2018-05-13T07:16:20.482Z,35.77
2018-05-13T07:18:47.980Z,34.93
2018-05-13T07:21:15.468Z,36.57
2018-05-13T07:23:42.953Z,39.80
2018-05-13T07:26:11.184Z,38.00
2018-05-13T07:28:38.690Z,38.87
2018-05-13T07:31:06.953Z,38.23
2018-05-13T07:33:34.441Z,41.90
2018-05-13T07:36:02.697Z,38.90
2018-05-13T07:38:30.169Z,40.70
2018-05-13T07:40:58.414Z,40.43
2018-05-13T07:43:26.746Z,41.37
2018-05-13T07:45:54.153Z,42.20
2018-05-13T07:48:21.628Z,44.27
2018-05-13T07:50:49.895Z,44.77
2018-05-13T07:53:17.388Z,43.17
2018-05-13T07:55:44.877Z,43.37
2018-05-13T07:58:12.353Z,42.87
2018-05-13T08:00:39.834Z,42.83
2018-05-13T08:03:08.516Z,43.73
2018-05-13T08:05:36.882Z,42.23
2018-05-13T08:08:04.353Z,45.80
2018-05-13T08:10:35.101Z,46.90
2018-05-13T08:13:02.670Z,44.70
2018-05-13T08:15:30.136Z,46.13
2018-05-13T08:17:57.632Z,48.77
2018-05-13T08:20:25.965Z,47.83
2018-05-13T08:22:53.518Z,49.80
2018-05-13T08:25:21.939Z,47.73
2018-05-13T08:27:49.401Z,55.50
2018-05-13T08:30:17.112Z,54.90
2018-05-13T08:32:44.636Z,58.03
2018-05-13T08:35:12.883Z,60.50
2018-05-13T08:37:40.345Z,61.00
2018-05-13T08:40:07.831Z,62.90
2018-05-13T08:42:36.136Z,64.53
2018-05-13T08:45:03.613Z,64.90
2018-05-13T08:47:31.090Z,61.90
2018-05-13T08:49:58.572Z,59.23
2018-05-13T08:52:26.819Z,65.00
2018-05-13T08:54:55.054Z,67.70
2018-05-13T08:57:22.555Z,64.27
2018-05-13T08:59:50.114Z,67.87
2018-05-13T09:02:18.403Z,69.30
2018-05-13T09:04:46.661Z,68.50
2018-05-13T09:07:14.141Z,73.43
2018-05-13T09:09:42.373Z,73.87
2018-05-13T09:12:09.857Z,72.17
2018-05-13T09:14:37.326Z,74.07
2018-05-13T09:17:05.598Z,77.87
2018-05-13T09:19:33.153Z,74.90
2018-05-13T09:22:00.628Z,77.40
2018-05-13T09:24:28.953Z,76.47
2018-05-13T09:26:56.476Z,72.77
2018-05-13T09:29:23.938Z,73.07
2018-05-13T09:31:51.451Z,74.03
2018-05-13T09:34:18.944Z,77.17
2018-05-13T09:36:46.446Z,75.20
2018-05-13T09:39:14.917Z,72.13
2018-05-13T09:41:42.409Z,76.07
2018-05-13T09:44:09.913Z,79.03
2018-05-13T09:46:37.396Z,74.10
2018-05-13T09:49:04.877Z,77.33
2018-05-13T09:51:32.350Z,74.47
2018-05-13T09:54:00.588Z,77.07
2018-05-13T09:56:28.229Z,75.97
2018-05-13T09:58:55.709Z,73.70
2018-05-13T10:01:23.194Z,72.13
2018-05-13T10:03:50.673Z,79.60
2018-05-13T10:06:18.182Z,75.80
2018-05-13T10:08:45.637Z,76.67
2018-05-13T10:11:13.135Z,74.30
2018-05-13T10:13:41.388Z,77.43
2018-05-13T10:16:08.872Z,70.53
2018-05-13T10:18:37.122Z,69.87
2018-05-13T10:21:04.608Z,69.87
2018-05-13T10:23:32.092Z,70.50
2018-05-13T10:25:59.574Z,71.23
2018-05-13T10:28:27.143Z,68.10
2018-05-13T10:30:55.297Z,64.97
2018-05-13T10:33:22.761Z,66.57
2018-05-13T10:35:50.241Z,67.27
2018-05-13T10:38:18.492Z,65.87
2018-05-13T10:40:45.985Z,62.57
2018-05-13T10:43:14.253Z,56.07
2018-05-13T10:45:47.584Z,62.27
2018-05-13T10:48:15.056Z,60.57
2018-05-13T10:50:42.516Z,63.27
2018-05-13T10:53:09.988Z,61.10
2018-05-13T10:55:37.448Z,57.03
2018-05-13T10:58:05.733Z,59.30
2018-05-13T11:00:33.220Z,59.90
2018-05-13T11:03:00.711Z,56.87
2018-05-13T11:05:28.192Z,55.67
2018-05-13T11:07:55.693Z,56.27
2018-05-13T11:10:24.006Z,56.23
2018-05-13T11:12:51.406Z,52.93
2018-05-13T11:15:18.905Z,50.17
2018-05-13T11:17:47.070Z,52.00
2018-05-13T11:20:15.614Z,53.93
2018-05-13T11:22:43.833Z,54.30
2018-05-13T11:25:11.297Z,57.80
2018-05-13T11:27:38.781Z,56.47
2018-05-13T11:30:06.332Z,55.10
2018-05-13T11:32:33.788Z,57.50
2018-05-13T11:35:01.273Z,58.37
2018-05-13T11:37:29.509Z,54.20
2018-05-13T11:39:57.038Z,51.80
2018-05-13T11:42:24.498Z,52.23
2018-05-13T11:44:52.111Z,52.53
2018-05-13T11:47:20.372Z,52.63
2018-05-13T11:49:47.851Z,50.83
2018-05-13T11:52:15.331Z,52.33
2018-05-13T11:54:43.666Z,49.10
2018-05-13T11:57:11.708Z,47.47
2018-05-13T11:59:39.177Z,46.00
2018-05-13T12:02:06.687Z,46.10
2018-05-13T12:04:34.153Z,45.30
2018-05-13T12:07:02.385Z,46.10
2018-05-13T12:09:29.865Z,44.97
2018-05-13T12:11:58.123Z,44.03
2018-05-13T12:14:25.589Z,42.63
2018-05-13T12:16:53.054Z,42.73
2018-05-13T12:19:21.305Z,40.30
2018-05-13T12:21:48.782Z,38.33
2018-05-13T12:24:16.257Z,39.97
2018-05-13T12:26:45.274Z,42.63
2018-05-13T12:29:12.766Z,43.00
2018-05-13T12:31:40.242Z,39.60
2018-05-13T12:34:07.707Z,41.57
2018-05-13T12:36:36.021Z,38.87
2018-05-13T12:39:03.519Z,41.40
2018-05-13T12:41:31.979Z,39.17
2018-05-13T12:43:59.441Z,42.07
2018-05-13T12:46:26.934Z,41.70
2018-05-13T12:48:55.173Z,38.70
2018-05-13T12:51:22.682Z,39.50
2018-05-13T12:53:50.157Z,39.10
2018-05-13T12:56:17.637Z,40.43
2018-05-13T12:58:45.136Z,42.80
2018-05-13T13:01:13.388Z,42.03
2018-05-13T13:03:41.621Z,43.27
2018-05-13T13:06:10.296Z,46.20
2018-05-13T13:08:37.800Z,46.60
2018-05-13T13:11:06.189Z,48.43
2018-05-13T13:13:34.241Z,47.00
2018-05-13T13:16:03.951Z,49.00
2018-05-13T13:18:33.265Z,50.03
2018-05-13T13:21:02.596Z,51.00
2018-05-13T13:23:31.133Z,50.50
2018-05-13T13:25:59.305Z,51.13
2018-05-13T13:28:28.521Z,50.40
2018-05-13T13:30:56.283Z,50.13
2018-05-13T13:33:24.127Z,51.47
2018-05-13T13:35:53.036Z,52.67
2018-05-13T13:38:21.203Z,50.23
2018-05-13T13:40:49.283Z,52.70
2018-05-13T13:43:18.107Z,53.50
2018-05-13T13:45:45.578Z,54.77
2018-05-13T13:48:13.053Z,49.20
2018-05-13T13:50:40.524Z,52.73
2018-05-13T13:53:08.001Z,50.40
2018-05-13T13:55:35.508Z,50.77
2018-05-13T13:58:02.996Z,53.03
2018-05-13T14:00:30.468Z,53.83
2018-05-13T14:02:58.021Z,50.13
2018-05-13T14:05:25.425Z,52.07
2018-05-13T14:07:52.913Z,51.70
2018-05-13T14:10:20.406Z,51.73
2018-05-13T14:12:48.657Z,51.03
2018-05-13T14:15:16.152Z,50.00
2018-05-13T14:17:44.396Z,51.33
2018-05-13T14:20:11.957Z,51.23
2018-05-13T14:22:40.126Z,52.67
2018-05-13T14:25:07.608Z,53.03
2018-05-13T14:27:35.898Z,51.37
2018-05-13T14:30:03.360Z,51.60
2018-05-13T14:32:30.854Z,51.90
2018-05-13T14:34:58.362Z,49.07
2018-05-13T14:37:26.602Z,50.17
2018-05-13T14:39:54.143Z,48.80
2018-05-13T14:42:21.625Z,51.47
2018-05-13T14:44:49.362Z,52.57
2018-05-13T14:47:16.830Z,52.73
2018-05-13T14:49:44.432Z,51.53
2018-05-13T14:52:12.667Z,51.03
2018-05-13T14:54:40.150Z,50.33
2018-05-13T14:57:08.402Z,48.27
2018-05-13T14:59:35.868Z,47.23
2018-05-13T15:02:03.337Z,48.50
2018-05-13T15:04:31.601Z,47.00
2018-05-13T15:06:59.111Z,45.83
2018-05-13T15:09:26.618Z,41.57
2018-05-13T15:11:54.064Z,44.53
2018-05-13T15:14:21.548Z,43.23
2018-05-13T15:16:49.772Z,40.57
2018-05-13T15:19:17.247Z,42.83
2018-05-13T15:21:44.725Z,37.30
2018-05-13T15:24:13.054Z,37.30
2018-05-13T15:26:40.579Z,33.30
2018-05-13T15:29:08.811Z,36.40
2018-05-13T15:31:36.282Z,37.43
2018-05-13T15:34:03.781Z,36.73
2018-05-13T15:36:31.245Z,37.97
2018-05-13T15:38:58.737Z,35.63
2018-05-13T15:41:26.277Z,34.33
2018-05-13T15:43:53.761Z,34.70
2018-05-13T15:46:21.245Z,34.80
2018-05-13T15:48:49.506Z,36.37
2018-05-13T15:51:17.764Z,35.07
2018-05-13T15:53:47.532Z,35.00
2018-05-13T15:56:16.179Z,34.23
2018-05-13T15:58:44.659Z,36.37
2018-05-13T16:01:12.797Z,32.40
2018-05-13T16:03:40.285Z,33.67
2018-05-13T16:06:09.425Z,33.57
2018-05-13T16:08:37.556Z,33.77
2018-05-13T16:11:05.053Z,33.10
2018-05-13T16:13:33.497Z,34.93
2018-05-13T16:16:01.862Z,34.40
2018-05-13T16:18:29.513Z,34.00
2018-05-13T16:20:57.949Z,36.93
2018-05-13T16:23:27.021Z,35.90
2018-05-13T16:25:55.325Z,37.00
2018-05-13T16:28:22.792Z,37.60
2018-05-13T16:30:50.291Z,41.80
2018-05-13T16:33:17.757Z,39.23
2018-05-13T16:35:46.001Z,38.37
2018-05-13T16:38:13.522Z,42.83
2018-05-13T16:40:40.989Z,42.97
2018-05-13T16:43:08.462Z,44.50
2018-05-13T16:45:35.948Z,45.03
2018-05-13T16:48:03.421Z,42.70
2018-05-13T16:50:31.657Z,42.87
2018-05-13T16:52:59.153Z,41.07
2018-05-13T16:55:27.459Z,41.90
2018-05-13T16:57:54.932Z,42.10
2018-05-13T17:00:22.425Z,42.93
2018-05-13T17:02:50.034Z,44.47
2018-05-13T17:05:17.514Z,45.40
2018-05-13T17:07:44.989Z,46.60
2018-05-13T17:10:12.486Z,46.20
2018-05-13T17:12:39.961Z,45.40
2018-05-13T17:15:07.436Z,46.90
2018-05-13T17:17:34.913Z,44.10
2018-05-13T17:20:02.381Z,45.50
2018-05-13T17:22:29.877Z,48.53
2018-05-13T17:24:57.382Z,50.17
2018-05-13T17:27:24.850Z,51.30
2018-05-13T17:29:52.434Z,49.60
2018-05-13T17:32:19.855Z,50.20
2018-05-13T17:34:47.326Z,48.00
2018-05-13T17:37:14.830Z,46.57
2018-05-13T17:39:42.315Z,47.80
2018-05-13T17:42:09.781Z,48.00
2018-05-13T17:44:37.272Z,46.17
2018-05-13T17:47:05.549Z,47.60
2018-05-13T17:49:33.816Z,49.07
2018-05-13T17:52:01.262Z,46.67
2018-05-13T17:54:29.519Z,48.97
2018-05-13T17:56:57.008Z,50.57
2018-05-13T17:59:25.229Z,49.87
2018-05-13T18:01:52.701Z,44.80
2018-05-13T18:04:20.193Z,45.10
2018-05-13T18:06:48.501Z,47.07
2018-05-13T18:09:15.919Z,45.43
2018-05-13T18:11:44.235Z,43.97
2018-05-13T18:14:11.706Z,42.90
2018-05-13T18:16:39.188Z,45.00
2018-05-13T18:19:06.687Z,45.27
2018-05-13T18:21:34.190Z,44.40
2018-05-13T18:24:01.645Z,44.50
2018-05-13T18:26:29.182Z,45.70
2018-05-13T18:28:56.646Z,47.47
2018-05-13T18:31:24.125Z,46.37
2018-05-13T18:33:51.630Z,47.73
2018-05-13T18:36:19.099Z,49.60
2018-05-13T18:38:46.581Z,47.37
2018-05-13T18:41:14.065Z,46.87
2018-05-13T18:43:41.545Z,47.27
2018-05-13T18:46:09.792Z,45.10
2018-05-13T18:48:37.264Z,43.50
2018-05-13T18:51:05.523Z,44.00
2018-05-13T18:53:33.520Z,45.03
2018-05-13T18:56:01.757Z,44.30
2018-05-13T18:58:29.287Z,43.23
2018-05-13T19:00:59.843Z,45.20
2018-05-13T19:03:27.329Z,44.20
2018-05-13T19:05:55.600Z,43.77
2018-05-13T19:08:24.266Z,42.20
2018-05-13T19:10:51.753Z,43.50
2018-05-13T19:13:20.004Z,43.17
2018-05-13T19:15:47.488Z,43.00
2018-05-13T19:18:15.752Z,42.67
2018-05-13T19:20:44.895Z,43.80
2018-05-13T19:23:15.195Z,44.83
2018-05-13T19:25:42.721Z,44.67
2018-05-13T19:28:10.236Z,43.43
2018-05-13T19:30:38.583Z,46.03
2018-05-13T19:33:06.837Z,44.67
2018-05-13T19:35:35.849Z,45.43
2018-05-13T19:38:05.237Z,43.93
2018-05-13T19:40:33.516Z,44.93
2018-05-13T19:43:01.745Z,44.10
2018-05-13T19:45:30.821Z,45.43
2018-05-13T19:48:00.596Z,44.17
2018-05-13T19:50:29.117Z,47.43
2018-05-13T19:52:56.582Z,45.70
2018-05-13T19:55:24.796Z,45.00
2018-05-13T19:57:52.296Z,44.63
2018-05-13T20:00:19.777Z,42.77
2018-05-13T20:02:47.360Z,46.10
2018-05-13T20:05:15.370Z,44.20
2018-05-13T20:07:43.730Z,45.73
2018-05-13T20:10:12.544Z,43.87
2018-05-13T20:12:40.016Z,42.63
2018-05-13T20:15:09.864Z,43.60
2018-05-13T20:17:37.402Z,43.37
2018-05-13T20:20:05.821Z,40.57
2018-05-13T20:22:59.751Z,42.50
2018-05-13T20:25:27.254Z,40.33
2018-05-13T20:27:55.513Z,41.00
2018-05-13T20:30:26.670Z,41.37
2018-05-13T20:32:54.902Z,43.77
2018-05-13T20:35:22.361Z,41.27
2018-05-13T20:37:49.850Z,41.23
2018-05-13T20:40:18.093Z,43.43
2018-05-13T20:42:45.556Z,42.67
2018-05-13T20:45:13.036Z,43.50
2018-05-13T20:47:41.273Z,43.80
2018-05-13T20:50:08.753Z,42.93
2018-05-13T20:52:36.238Z,41.57
2018-05-13T20:55:04.476Z,41.70
2018-05-13T20:57:31.941Z,41.70
2018-05-13T20:59:59.517Z,39.90
2018-05-13T21:02:26.992Z,41.67
2018-05-13T21:04:55.233Z,42.63
2018-05-13T21:07:22.744Z,41.00
2018-05-13T21:09:50.205Z,42.37
2018-05-13T21:12:17.730Z,42.40
2018-05-13T21:14:45.973Z,45.27
2018-05-13T21:17:13.457Z,44.90
2018-05-13T21:19:41.765Z,45.90
2018-05-13T21:22:09.230Z,44.43
2018-05-13T21:24:36.799Z,46.77
2018-05-13T21:27:04.341Z,46.87
2018-05-13T21:29:31.898Z,49.00
2018-05-13T21:31:59.457Z,48.77
2018-05-13T21:34:26.936Z,48.77
2018-05-13T21:36:54.469Z,48.00
2018-05-13T21:39:21.956Z,49.47
2018-05-13T21:41:49.413Z,53.10
2018-05-13T21:44:16.894Z,53.97
2018-05-13T21:46:44.399Z,54.43
2018-05-13T21:49:11.862Z,51.30
2018-05-13T21:51:39.329Z,53.63
2018-05-13T21:54:06.840Z,53.30
2018-05-13T21:56:35.089Z,54.37
2018-05-13T21:59:02.553Z,55.70
2018-05-13T22:01:30.161Z,54.63
2018-05-13T22:03:57.649Z,57.00
2018-05-13T22:06:25.737Z,57.77
2018-05-13T22:08:53.230Z,55.83
2018-05-13T22:11:21.449Z,57.60
2018-05-13T22:13:48.917Z,57.23
2018-05-13T22:16:16.403Z,57.30
2018-05-13T22:18:44.642Z,58.40
2018-05-13T22:21:12.117Z,60.53
2018-05-13T22:23:39.619Z,60.67
2018-05-13T22:26:07.183Z,55.80
2018-05-13T22:28:34.652Z,60.20
2018-05-13T22:31:02.297Z,61.77
2018-05-13T22:33:29.856Z,58.97
2018-05-13T22:35:57.309Z,60.90
2018-05-13T22:38:24.792Z,61.97
2018-05-13T22:40:52.258Z,61.00
2018-05-13T22:43:19.724Z,61.43
2018-05-13T22:45:47.239Z,64.90
2018-05-13T22:48:14.712Z,63.23
2018-05-13T22:50:42.201Z,62.97
2018-05-13T22:53:09.689Z,61.00
2018-05-13T22:55:37.162Z,66.57
2018-05-13T22:58:04.677Z,67.50
2018-05-13T23:00:32.957Z,67.10
2018-05-13T23:03:00.428Z,68.13
2018-05-13T23:05:28.771Z,74.10
2018-05-13T23:07:56.173Z,70.00
2018-05-13T23:10:23.697Z,69.90
2018-05-13T23:12:51.206Z,70.80
2018-05-13T23:15:18.687Z,73.70
2018-05-13T23:17:46.150Z,76.00
2018-05-13T23:20:13.629Z,73.50
2018-05-13T23:22:41.129Z,77.53
2018-05-13T23:25:08.589Z,73.60
2018-05-13T23:27:36.093Z,78.10
2018-05-13T23:30:03.573Z,79.27
2018-05-13T23:32:31.813Z,77.37
2018-05-13T23:34:59.300Z,79.63
2018-05-13T23:37:27.538Z,82.23
2018-05-13T23:39:55.013Z,83.27
2018-05-13T23:42:22.521Z,81.20
2018-05-13T23:44:49.992Z,85.07
2018-05-13T23:47:17.501Z,85.70
2018-05-13T23:49:44.975Z,86.20
2018-05-13T23:52:12.453Z,81.00
2018-05-13T23:54:39.946Z,84.30
2018-05-13T23:57:07.444Z,79.20
2018-05-13T23:59:34.989Z,82.60
